createdAt,value
2023-02-16T00:01:19.127Z,23.25
2023-02-16T00:06:16.337Z,22.48
2023-02-16T00:08:44.985Z,23.95
2023-02-16T00:11:40.535Z,24.70
2023-02-16T00:14:10.181Z,23.20
2023-02-16T00:16:38.195Z,24.83
2023-02-16T00:19:16.568Z,24.92
2023-02-16T00:21:45.657Z,25.85
2023-02-16T00:24:13.327Z,24.13
2023-02-16T00:26:41.918Z,25.88
2023-02-16T00:29:12.050Z,27.92
2023-02-16T00:31:39.818Z,24.95
2023-02-16T00:34:22.063Z,27.08
2023-02-16T00:36:51.047Z,27.05
2023-02-16T00:39:18.850Z,27.67
2023-02-16T00:41:52.500Z,26.58
2023-02-16T00:44:21.636Z,28.10
2023-02-16T00:46:49.410Z,26.45
2023-02-16T00:49:17.521Z,28.67
2023-02-16T00:51:45.627Z,27.20
2023-02-16T00:54:14.882Z,28.48
2023-02-16T00:56:43.366Z,24.38
2023-02-16T00:59:15.152Z,27.92
2023-02-16T01:01:42.918Z,25.42
2023-02-16T01:04:13.712Z,26.88
2023-02-16T01:06:58.976Z,25.85
2023-02-16T01:09:45.679Z,28.98
2023-02-16T01:12:15.168Z,22.17
2023-02-16T01:14:42.896Z,25.05
2023-02-16T01:17:11.290Z,23.98
2023-02-16T01:19:38.972Z,24.25
2023-02-16T01:22:07.469Z,24.55
2023-02-16T01:24:36.560Z,26.83
2023-02-16T01:27:04.351Z,25.20
2023-02-16T01:29:32.110Z,24.95
2023-02-16T01:31:59.950Z,28.90
2023-02-16T01:34:27.722Z,25.17
2023-02-16T01:36:56.514Z,26.50
2023-02-16T01:39:24.134Z,25.95
2023-02-16T01:42:03.340Z,26.55
2023-02-16T01:44:33.219Z,25.67
2023-02-16T01:47:03.364Z,25.88
2023-02-16T01:49:31.018Z,24.50
2023-02-16T01:52:00.960Z,26.23
2023-02-16T01:54:37.483Z,25.75
2023-02-16T01:57:11.741Z,24.58
2023-02-16T02:00:04.096Z,23.67
2023-02-16T02:02:37.958Z,24.55
2023-02-16T02:05:26.882Z,24.50
2023-02-16T02:07:57.913Z,23.30
2023-02-16T02:10:29.121Z,26.90
2023-02-16T02:13:01.082Z,25.48
2023-02-16T02:15:30.844Z,24.33
2023-02-16T02:17:58.639Z,25.00
2023-02-16T02:20:48.550Z,24.90
2023-02-16T02:23:33.106Z,22.00
2023-02-16T02:26:24.955Z,21.83
2023-02-16T02:28:56.932Z,24.67
2023-02-16T02:31:30.563Z,25.33
2023-02-16T02:34:02.270Z,25.08
2023-02-16T02:36:32.330Z,24.48
2023-02-16T02:39:05.360Z,25.25
2023-02-16T02:41:50.654Z,25.15
2023-02-16T02:44:21.974Z,22.95
2023-02-16T02:46:49.922Z,25.23
2023-02-16T02:49:17.696Z,23.63
2023-02-16T02:51:45.630Z,21.70
2023-02-16T02:54:32.733Z,23.85
2023-02-16T02:57:19.332Z,21.90
2023-02-16T03:00:08.605Z,21.92
2023-02-16T03:02:37.014Z,23.20
2023-02-16T03:05:06.398Z,21.30
2023-02-16T03:07:49.955Z,23.25
2023-02-16T03:10:36.771Z,24.60
2023-02-16T03:13:05.406Z,21.98
2023-02-16T03:15:35.924Z,24.52
2023-02-16T03:18:21.493Z,23.58
2023-02-16T03:21:06.892Z,23.75
2023-02-16T03:23:52.137Z,20.73
2023-02-16T03:26:37.924Z,21.27
2023-02-16T03:29:22.040Z,21.75
2023-02-16T03:34:21.688Z,21.02
2023-02-16T03:36:50.387Z,20.25
2023-02-16T03:39:18.387Z,20.67
2023-02-16T03:41:49.065Z,21.83
2023-02-16T03:44:16.794Z,22.00
2023-02-16T03:46:44.497Z,22.65
2023-02-16T03:49:12.288Z,20.42
2023-02-16T03:51:41.330Z,22.13
2023-02-16T03:54:09.072Z,20.45
2023-02-16T03:56:36.743Z,20.10
2023-02-16T03:59:04.536Z,20.48
2023-02-16T04:01:32.335Z,18.92
2023-02-16T04:04:00.002Z,20.65
2023-02-16T04:06:27.723Z,20.40
2023-02-16T04:08:56.994Z,22.02
2023-02-16T04:11:42.297Z,21.73
2023-02-16T04:14:10.020Z,19.13
2023-02-16T04:16:37.732Z,19.95
2023-02-16T04:19:06.558Z,22.38
2023-02-16T04:21:34.245Z,18.60
2023-02-16T04:24:05.772Z,19.02
2023-02-16T04:26:33.639Z,19.70
2023-02-16T04:29:01.466Z,22.77
2023-02-16T04:31:29.264Z,18.58
2023-02-16T04:33:57.022Z,18.05
2023-02-16T04:36:24.679Z,19.88
2023-02-16T04:38:53.275Z,20.38
2023-02-16T04:41:22.487Z,18.77
2023-02-16T04:43:50.601Z,19.55
2023-02-16T04:46:19.296Z,20.90
2023-02-16T04:48:47.702Z,19.98
2023-02-16T04:51:16.079Z,19.52
2023-02-16T04:53:43.944Z,19.27
2023-02-16T04:56:11.817Z,18.27
2023-02-16T04:58:40.982Z,18.80
2023-02-16T05:01:08.916Z,19.35
2023-02-16T05:03:36.629Z,18.52
2023-02-16T05:06:04.412Z,18.38
2023-02-16T05:08:32.948Z,18.90
2023-02-16T05:11:18.039Z,18.80
2023-02-16T05:14:04.593Z,19.70
2023-02-16T05:16:32.342Z,18.38
2023-02-16T05:19:00.010Z,17.75
2023-02-16T05:21:33.887Z,17.27
2023-02-16T05:24:02.609Z,18.70
2023-02-16T05:26:30.664Z,17.40
2023-02-16T05:29:00.223Z,19.90
2023-02-16T05:31:28.728Z,17.83
2023-02-16T05:33:56.573Z,21.83
2023-02-16T05:36:24.752Z,19.65
2023-02-16T05:38:52.540Z,17.52
2023-02-16T05:41:24.460Z,19.75
2023-02-16T05:43:53.297Z,19.23
2023-02-16T05:46:22.536Z,17.80
2023-02-16T05:48:50.773Z,18.45
2023-02-16T05:51:18.852Z,20.40
2023-02-16T05:53:47.212Z,17.35
2023-02-16T05:56:15.377Z,19.05
2023-02-16T05:58:43.048Z,18.98
2023-02-16T06:01:11.113Z,21.33
2023-02-16T06:03:40.175Z,17.52
2023-02-16T06:06:09.140Z,19.33
2023-02-16T06:08:37.599Z,19.35
2023-02-16T06:11:07.061Z,19.77
2023-02-16T06:13:34.946Z,18.02
2023-02-16T06:16:02.746Z,18.63
2023-02-16T06:18:30.527Z,16.48
2023-02-16T06:20:59.599Z,17.08
2023-02-16T06:23:27.346Z,16.77
2023-02-16T06:25:55.179Z,17.95
2023-02-16T06:28:22.858Z,18.42
2023-02-16T06:30:50.783Z,17.15
2023-02-16T06:33:18.468Z,17.60
2023-02-16T06:35:46.291Z,18.92
2023-02-16T06:38:15.317Z,18.27
2023-02-16T06:40:44.244Z,17.92
2023-02-16T06:43:11.948Z,19.92
2023-02-16T06:45:39.647Z,17.38
2023-02-16T06:48:07.374Z,18.80
2023-02-16T06:50:35.054Z,17.63
2023-02-16T06:53:02.786Z,20.23
2023-02-16T06:55:36.787Z,17.08
2023-02-16T06:58:04.580Z,18.25
2023-02-16T07:00:32.654Z,17.65
2023-02-16T07:03:00.357Z,18.17
2023-02-16T07:05:28.118Z,20.35
2023-02-16T07:07:56.101Z,18.35
2023-02-16T07:10:23.757Z,18.73
2023-02-16T07:12:52.827Z,17.25
2023-02-16T07:15:20.540Z,16.92
2023-02-16T07:17:48.253Z,17.70
2023-02-16T07:20:15.979Z,19.38
2023-02-16T07:22:44.451Z,17.70
2023-02-16T07:25:12.107Z,19.40
2023-02-16T07:27:39.758Z,17.70
2023-02-16T07:30:11.033Z,17.55
2023-02-16T07:32:39.625Z,19.13
2023-02-16T07:35:07.645Z,19.02
2023-02-16T07:37:35.367Z,19.02
2023-02-16T07:40:03.069Z,17.23
2023-02-16T07:42:31.334Z,17.67
2023-02-16T07:44:59.040Z,17.40
2023-02-16T07:47:28.140Z,19.17
2023-02-16T07:49:55.834Z,19.70
2023-02-16T07:52:25.869Z,18.63
2023-02-16T07:54:53.559Z,18.83
2023-02-16T07:57:21.222Z,19.23
2023-02-16T07:59:51.640Z,19.58
2023-02-16T08:02:25.340Z,20.17
2023-02-16T08:04:54.406Z,18.52
2023-02-16T08:07:22.500Z,18.52
2023-02-16T08:09:50.181Z,17.25
2023-02-16T08:12:19.279Z,17.15
2023-02-16T08:14:47.703Z,19.38
2023-02-16T08:17:15.788Z,21.33
2023-02-16T08:19:43.426Z,19.40
2023-02-16T08:22:13.255Z,19.27
2023-02-16T08:24:40.873Z,19.83
2023-02-16T08:27:08.578Z,20.67
2023-02-16T08:29:36.251Z,20.88
2023-02-16T08:32:07.715Z,20.45
2023-02-16T08:34:36.060Z,20.80
2023-02-16T08:37:04.599Z,18.60
2023-02-16T08:39:34.207Z,19.73
2023-02-16T08:42:03.130Z,20.85
2023-02-16T08:44:31.333Z,20.83
2023-02-16T08:47:00.744Z,20.40
2023-02-16T08:49:28.747Z,21.02
2023-02-16T08:51:58.713Z,20.08
2023-02-16T08:54:29.961Z,21.67
2023-02-16T08:56:59.896Z,22.02
2023-02-16T08:59:28.823Z,20.65
2023-02-16T09:01:58.067Z,21.55
2023-02-16T09:04:27.478Z,22.00
2023-02-16T09:06:56.173Z,22.27
2023-02-16T09:09:24.077Z,21.27
2023-02-16T09:11:51.866Z,21.13
2023-02-16T09:14:21.633Z,19.00
2023-02-16T09:16:49.589Z,20.58
2023-02-16T09:19:18.941Z,19.40
2023-02-16T09:21:48.644Z,21.48
2023-02-16T09:24:16.446Z,21.48
2023-02-16T09:26:44.724Z,17.63
2023-02-16T09:29:14.037Z,20.75
2023-02-16T09:31:45.029Z,19.20
2023-02-16T09:34:17.204Z,19.92
2023-02-16T09:36:45.146Z,20.92
2023-02-16T09:39:14.003Z,19.65
2023-02-16T09:41:53.925Z,20.00
2023-02-16T09:44:29.397Z,19.48
2023-02-16T09:46:59.785Z,20.50
2023-02-16T09:49:30.106Z,18.77
2023-02-16T09:52:01.097Z,19.48
2023-02-16T09:54:35.445Z,19.45
2023-02-16T09:57:08.316Z,18.67
2023-02-16T09:59:43.192Z,16.85
2023-02-16T10:02:25.340Z,19.30
2023-02-16T10:05:13.269Z,16.60
2023-02-16T10:07:43.735Z,17.85
2023-02-16T10:10:14.884Z,19.20
2023-02-16T10:12:44.649Z,18.45
2023-02-16T10:15:16.416Z,17.90
2023-02-16T10:17:48.009Z,19.15
2023-02-16T10:20:17.528Z,17.75
2023-02-16T10:22:48.970Z,17.58
2023-02-16T10:25:20.091Z,19.13
2023-02-16T10:27:51.325Z,17.40
2023-02-16T10:30:21.041Z,17.52
2023-02-16T10:32:56.371Z,17.23
2023-02-16T10:37:55.532Z,17.00
2023-02-16T10:40:34.725Z,18.10
2023-02-16T10:43:07.136Z,17.67
2023-02-16T10:45:37.948Z,19.38
2023-02-16T10:48:08.519Z,16.67
2023-02-16T10:50:38.916Z,16.42
2023-02-16T10:53:11.166Z,16.08
2023-02-16T10:55:39.465Z,16.83
2023-02-16T10:58:14.937Z,17.10
2023-02-16T11:00:48.383Z,15.15
2023-02-16T11:03:18.121Z,15.25
2023-02-16T11:05:46.740Z,15.77
2023-02-16T11:08:14.796Z,16.67
2023-02-16T11:10:46.161Z,14.48
2023-02-16T11:13:28.130Z,14.05
2023-02-16T11:15:57.309Z,14.27
2023-02-16T11:18:30.098Z,15.18
2023-02-16T11:20:59.573Z,13.98
2023-02-16T11:23:28.223Z,14.77
2023-02-16T11:25:58.186Z,15.93
2023-02-16T11:28:32.421Z,16.10
2023-02-16T11:31:02.820Z,15.50
2023-02-16T11:33:32.763Z,14.88
2023-02-16T11:36:02.441Z,14.02
2023-02-16T11:38:31.717Z,15.52
2023-02-16T11:41:00.721Z,14.48
2023-02-16T11:43:29.951Z,13.75
2023-02-16T11:45:58.798Z,14.85
2023-02-16T11:48:28.563Z,14.88
2023-02-16T11:51:00.189Z,13.38
2023-02-16T11:53:29.151Z,15.77
2023-02-16T11:56:11.181Z,14.65
2023-02-16T11:58:39.043Z,14.32
2023-02-16T12:01:15.037Z,14.27
2023-02-16T12:03:59.861Z,13.65
2023-02-16T12:06:33.695Z,14.07
2023-02-16T12:09:09.028Z,14.05
2023-02-16T12:14:13.857Z,13.18
2023-02-16T12:16:45.106Z,14.77
2023-02-16T12:19:20.065Z,14.95
2023-02-16T12:21:50.567Z,13.63
2023-02-16T12:24:28.367Z,14.70
2023-02-16T12:26:58.007Z,14.27
2023-02-16T12:29:30.195Z,13.75
2023-02-16T12:32:02.999Z,15.43
2023-02-16T12:34:36.409Z,14.25
2023-02-16T12:37:10.255Z,13.20
2023-02-16T12:39:42.267Z,13.18
2023-02-16T12:42:20.261Z,14.95
2023-02-16T12:44:49.647Z,11.93
2023-02-16T12:47:20.794Z,12.23
2023-02-16T12:49:53.393Z,13.60
2023-02-16T12:52:28.518Z,13.07
2023-02-16T12:54:58.951Z,14.50
2023-02-16T12:57:30.607Z,13.60
2023-02-16T12:59:59.503Z,12.38
2023-02-16T13:02:30.078Z,14.77
2023-02-16T13:04:59.740Z,13.88
2023-02-16T13:07:32.676Z,13.23
2023-02-16T13:10:03.208Z,12.93
2023-02-16T13:12:33.404Z,11.05
2023-02-16T13:15:08.000Z,11.95
2023-02-16T13:17:36.695Z,11.85
2023-02-16T13:20:04.927Z,12.02
2023-02-16T13:22:44.905Z,12.07
2023-02-16T13:25:29.717Z,10.73
2023-02-16T13:28:02.942Z,12.23
2023-02-16T13:30:48.071Z,11.25
2023-02-16T13:33:24.569Z,10.90
2023-02-16T13:36:01.335Z,10.80
2023-02-16T13:38:40.951Z,11.20
2023-02-16T13:41:14.843Z,10.32
2023-02-16T13:43:43.462Z,10.63
2023-02-16T13:46:15.056Z,11.07
2023-02-16T13:48:47.408Z,11.43
2023-02-16T13:51:16.708Z,10.63
2023-02-16T13:53:51.658Z,11.35
2023-02-16T13:56:24.132Z,11.55
2023-02-16T13:58:52.239Z,10.68
2023-02-16T14:01:38.813Z,11.05
2023-02-16T14:04:07.656Z,11.15
2023-02-16T14:06:37.172Z,9.70
2023-02-16T14:09:21.399Z,10.02
2023-02-16T14:12:14.365Z,10.27
2023-02-16T14:14:46.455Z,10.90
2023-02-16T14:17:18.383Z,11.18
2023-02-16T14:19:53.843Z,11.40
2023-02-16T14:22:23.058Z,10.18
2023-02-16T14:24:54.840Z,10.18
2023-02-16T14:30:27.069Z,10.75
2023-02-16T14:32:57.604Z,11.93
2023-02-16T14:35:28.094Z,10.20
2023-02-16T14:37:57.958Z,11.02
2023-02-16T14:40:40.438Z,9.30
2023-02-16T14:43:14.549Z,9.18
2023-02-16T14:45:55.175Z,9.43
2023-02-16T14:48:30.078Z,9.18
2023-02-16T14:51:10.098Z,9.13
2023-02-16T14:53:55.775Z,9.52
2023-02-16T14:56:30.017Z,8.95
2023-02-16T14:59:03.031Z,8.77
2023-02-16T15:01:39.665Z,9.63
2023-02-16T15:04:07.740Z,10.45
2023-02-16T15:06:38.215Z,10.40
2023-02-16T15:09:07.202Z,11.70
2023-02-16T15:11:59.327Z,9.48
2023-02-16T15:14:27.852Z,9.57
2023-02-16T15:16:58.601Z,10.40
2023-02-16T15:19:28.905Z,11.57
2023-02-16T15:22:09.076Z,11.15
2023-02-16T15:24:37.374Z,10.13
2023-02-16T15:27:05.162Z,10.50
2023-02-16T15:29:33.421Z,11.07
2023-02-16T15:32:02.536Z,10.52
2023-02-16T15:34:33.318Z,10.25
2023-02-16T15:37:02.376Z,9.90
2023-02-16T15:39:45.093Z,10.05
2023-02-16T15:42:21.665Z,10.30
2023-02-16T15:44:49.500Z,10.05
2023-02-16T15:47:22.502Z,11.05
2023-02-16T15:49:50.324Z,9.63
2023-02-16T15:52:19.539Z,10.65
2023-02-16T15:54:48.302Z,10.50
2023-02-16T15:57:21.245Z,9.38
2023-02-16T15:59:50.013Z,9.95
2023-02-16T16:02:20.583Z,9.65
2023-02-16T16:04:49.872Z,9.88
2023-02-16T16:07:20.065Z,11.10
2023-02-16T16:09:48.324Z,10.75
2023-02-16T16:12:18.331Z,12.02
2023-02-16T16:14:49.992Z,10.07
2023-02-16T16:17:22.629Z,10.55
2023-02-16T16:19:51.505Z,10.77
2023-02-16T16:22:30.134Z,10.13
2023-02-16T16:24:57.829Z,11.32
2023-02-16T16:27:29.639Z,11.48
2023-02-16T16:30:10.317Z,10.18
2023-02-16T16:32:39.606Z,9.07
2023-02-16T16:35:19.772Z,10.10
2023-02-16T16:37:50.302Z,9.82
2023-02-16T16:40:22.498Z,10.32
2023-02-16T16:43:07.573Z,9.32
2023-02-16T16:45:37.224Z,9.70
2023-02-16T16:48:11.020Z,9.18
2023-02-16T16:50:39.987Z,7.38
2023-02-16T16:53:31.702Z,8.13
2023-02-16T16:56:02.485Z,8.75
2023-02-16T16:58:30.210Z,7.72
2023-02-16T17:00:57.919Z,8.25
2023-02-16T17:03:26.976Z,9.13
2023-02-16T17:05:54.623Z,8.02
2023-02-16T17:08:22.323Z,8.82
2023-02-16T17:10:50.036Z,7.65
2023-02-16T17:13:19.788Z,8.73
2023-02-16T17:15:49.695Z,8.60
2023-02-16T17:18:18.128Z,9.73
2023-02-16T17:20:47.555Z,9.18
2023-02-16T17:23:17.141Z,9.02
2023-02-16T17:25:45.276Z,8.88
2023-02-16T17:28:14.035Z,9.52
2023-02-16T17:30:41.693Z,9.50
2023-02-16T17:33:09.742Z,8.95
2023-02-16T17:35:39.276Z,8.18
2023-02-16T17:38:12.114Z,7.57
2023-02-16T17:40:41.361Z,8.82
2023-02-16T17:43:13.553Z,6.80
2023-02-16T17:45:41.354Z,7.82
2023-02-16T17:48:09.436Z,7.38
2023-02-16T17:50:37.401Z,8.10
2023-02-16T17:53:05.097Z,8.80
2023-02-16T17:55:35.414Z,8.13
2023-02-16T17:58:03.061Z,9.40
2023-02-16T18:00:30.938Z,8.88
2023-02-16T18:02:59.367Z,9.30
2023-02-16T18:05:27.200Z,9.43
2023-02-16T18:07:56.799Z,8.25
2023-02-16T18:10:32.245Z,9.65
2023-02-16T18:13:01.374Z,9.63
2023-02-16T18:15:29.213Z,9.38
2023-02-16T18:17:57.113Z,9.70
2023-02-16T18:20:26.650Z,8.73
2023-02-16T18:22:55.048Z,9.57
2023-02-16T18:25:23.037Z,9.88
2023-02-16T18:27:50.831Z,9.02
2023-02-16T18:30:19.949Z,9.00
2023-02-16T18:32:47.645Z,9.18
2023-02-16T18:35:15.855Z,8.48
2023-02-16T18:37:43.791Z,8.93
2023-02-16T18:40:13.261Z,8.55
2023-02-16T18:42:41.262Z,8.88
2023-02-16T18:45:09.568Z,8.52
2023-02-16T18:47:39.150Z,7.93
2023-02-16T18:50:07.337Z,8.43
2023-02-16T18:52:35.136Z,7.75
2023-02-16T18:55:02.861Z,7.10
2023-02-16T18:57:30.646Z,8.68
2023-02-16T18:59:59.191Z,6.93
2023-02-16T19:02:26.864Z,6.35
2023-02-16T19:04:56.637Z,7.32
2023-02-16T19:07:24.555Z,5.72
2023-02-16T19:09:52.196Z,6.07
2023-02-16T19:12:19.882Z,5.50
2023-02-16T19:14:48.636Z,6.60
2023-02-16T19:17:16.333Z,6.50
2023-02-16T19:19:44.228Z,6.38
2023-02-16T19:22:13.467Z,6.53
2023-02-16T19:24:41.318Z,6.93
2023-02-16T19:27:09.008Z,5.90
2023-02-16T19:29:36.652Z,5.78
2023-02-16T19:32:04.490Z,5.45
2023-02-16T19:34:33.407Z,6.30
2023-02-16T19:37:01.391Z,5.82
2023-02-16T19:39:30.461Z,6.05
2023-02-16T19:41:58.186Z,5.70
2023-02-16T19:44:25.874Z,5.30
2023-02-16T19:46:53.532Z,5.10
2023-02-16T19:49:21.197Z,5.75
2023-02-16T19:51:49.426Z,5.40
2023-02-16T19:54:17.104Z,5.50
2023-02-16T19:56:46.154Z,5.70
2023-02-16T19:59:15.349Z,5.55
2023-02-16T20:01:43.291Z,6.53
2023-02-16T20:04:12.895Z,6.32
2023-02-16T20:06:42.017Z,6.15
2023-02-16T20:09:17.863Z,7.22
2023-02-16T20:11:47.305Z,7.68
2023-02-16T20:14:15.031Z,8.98
2023-02-16T20:16:42.719Z,8.10
2023-02-16T20:19:10.484Z,7.78
2023-02-16T20:21:38.292Z,7.20
2023-02-16T20:24:06.781Z,7.40
2023-02-16T20:26:35.881Z,7.57
2023-02-16T20:29:05.770Z,8.63
2023-02-16T20:31:34.687Z,7.85
2023-02-16T20:34:03.200Z,8.27
2023-02-16T20:36:31.641Z,7.78
2023-02-16T20:38:59.360Z,7.50
2023-02-16T20:41:27.153Z,7.88
2023-02-16T20:43:55.078Z,8.00
2023-02-16T20:46:24.930Z,7.82
2023-02-16T20:48:54.004Z,8.52
2023-02-16T20:51:21.938Z,9.57
2023-02-16T20:53:49.872Z,8.75
2023-02-16T20:56:19.990Z,8.15
2023-02-16T20:58:48.988Z,7.15
2023-02-16T21:01:17.847Z,7.43
2023-02-16T21:03:46.908Z,9.23
2023-02-16T21:06:14.575Z,7.57
2023-02-16T21:08:42.421Z,9.13
2023-02-16T21:11:10.398Z,8.43
2023-02-16T21:13:39.652Z,6.20
2023-02-16T21:16:08.397Z,5.32
2023-02-16T21:18:38.727Z,4.55
2023-02-16T21:21:09.502Z,5.05
2023-02-16T21:23:38.062Z,4.85
2023-02-16T21:26:06.734Z,4.35
2023-02-16T21:28:34.650Z,5.25
2023-02-16T21:31:03.987Z,6.50
2023-02-16T21:33:31.802Z,3.90
2023-02-16T21:36:04.221Z,3.85
2023-02-16T21:38:33.767Z,5.15
2023-02-16T21:41:22.778Z,4.35
2023-02-16T21:43:50.717Z,4.53
2023-02-16T21:46:18.508Z,3.88
2023-02-16T21:48:48.279Z,4.13
2023-02-16T21:51:16.909Z,4.38
2023-02-16T21:53:46.990Z,4.28
2023-02-16T21:56:24.346Z,4.43
2023-02-16T21:58:52.128Z,4.40
2023-02-16T22:01:23.574Z,4.40
2023-02-16T22:03:56.873Z,4.55
2023-02-16T22:06:25.393Z,4.53
2023-02-16T22:08:54.571Z,4.32
2023-02-16T22:11:22.577Z,4.65
2023-02-16T22:13:53.869Z,3.92
2023-02-16T22:16:21.799Z,4.80
2023-02-16T22:18:49.725Z,5.65
2023-02-16T22:21:17.611Z,4.68
2023-02-16T22:23:45.553Z,5.15
2023-02-16T22:26:20.788Z,4.70
2023-02-16T22:28:48.997Z,4.47
2023-02-16T22:31:16.739Z,5.25
2023-02-16T22:33:44.606Z,4.35
2023-02-16T22:36:14.005Z,5.53
2023-02-16T22:38:42.414Z,4.55
2023-02-16T22:41:11.048Z,4.75
2023-02-16T22:43:41.438Z,5.03
2023-02-16T22:46:10.353Z,4.90
2023-02-16T22:48:38.049Z,4.88
2023-02-16T22:51:07.026Z,5.32
2023-02-16T22:53:35.058Z,5.53
2023-02-16T22:56:03.427Z,4.72
2023-02-16T22:58:31.487Z,4.80
2023-02-16T23:01:00.797Z,5.78
2023-02-16T23:03:29.006Z,4.45
2023-02-16T23:05:56.720Z,4.40
2023-02-16T23:08:24.541Z,4.47
2023-02-16T23:11:00.996Z,3.90
2023-02-16T23:13:30.229Z,3.60
2023-02-16T23:15:58.519Z,3.90
2023-02-16T23:18:27.642Z,3.70
2023-02-16T23:20:55.361Z,3.88
2023-02-16T23:23:23.781Z,3.33
2023-02-16T23:25:51.556Z,3.35
2023-02-16T23:28:19.266Z,3.25
2023-02-16T23:30:47.711Z,3.10
2023-02-16T23:33:15.530Z,2.83
2023-02-16T23:35:44.565Z,2.85
2023-02-16T23:38:13.662Z,2.58
2023-02-16T23:40:41.348Z,2.75
2023-02-16T23:43:09.163Z,3.90
2023-02-16T23:45:36.885Z,3.33
2023-02-16T23:48:04.851Z,2.15
2023-02-16T23:50:32.496Z,2.83
2023-02-16T23:53:01.688Z,2.92
2023-02-16T23:55:29.354Z,2.72
2023-02-16T23:57:57.263Z,2.03
